sensor_id;sensor_type;location;lat;lon;timestamp;temperature;humidity
73576;DHT22;61859;49.204;8.140;2023-04-01T00:02:18;10.20;85.60
73576;DHT22;61859;49.204;8.140;2023-04-01T00:04:44;10.30;85.50
73576;DHT22;61859;49.204;8.140;2023-04-01T00:07:11;10.20;85.80
73576;DHT22;61859;49.204;8.140;2023-04-01T00:09:36;10.20;85.50
73576;DHT22;61859;49.204;8.140;2023-04-01T00:12:03;10.30;85.80
73576;DHT22;61859;49.204;8.140;2023-04-01T00:14:29;10.20;85.40
73576;DHT22;61859;49.204;8.140;2023-04-01T00:16:55;10.20;84.70
73576;DHT22;61859;49.204;8.140;2023-04-01T00:19:22;10.30;84.80
73576;DHT22;61859;49.204;8.140;2023-04-01T00:21:47;10.30;84.70
73576;DHT22;61859;49.204;8.140;2023-04-01T00:24:13;10.40;84.60
73576;DHT22;61859;49.204;8.140;2023-04-01T00:26:39;10.30;83.90
73576;DHT22;61859;49.204;8.140;2023-04-01T00:29:07;10.40;83.80
73576;DHT22;61859;49.204;8.140;2023-04-01T00:31:33;10.40;84.10
73576;DHT22;61859;49.204;8.140;2023-04-01T00:33:58;10.40;83.50
73576;DHT22;61859;49.204;8.140;2023-04-01T00:36:24;10.40;83.60
73576;DHT22;61859;49.204;8.140;2023-04-01T00:38:50;10.40;83.50
73576;DHT22;61859;49.204;8.140;2023-04-01T00:41:18;10.50;83.60
73576;DHT22;61859;49.204;8.140;2023-04-01T00:43:47;10.50;83.20
73576;DHT22;61859;49.204;8.140;2023-04-01T00:46:13;10.40;83.30
73576;DHT22;61859;49.204;8.140;2023-04-01T00:48:43;10.40;83.70
73576;DHT22;61859;49.204;8.140;2023-04-01T00:51:19;10.40;83.40
73576;DHT22;61859;49.204;8.140;2023-04-01T00:53:49;10.40;83.40
73576;DHT22;61859;49.204;8.140;2023-04-01T00:56:18;10.40;83.70
73576;DHT22;61859;49.204;8.140;2023-04-01T00:58:50;10.40;83.30
73576;DHT22;61859;49.204;8.140;2023-04-01T01:01:16;10.40;83.40
73576;DHT22;61859;49.204;8.140;2023-04-01T01:03:42;10.30;83.40
73576;DHT22;61859;49.204;8.140;2023-04-01T01:06:44;10.30;83.40
73576;DHT22;61859;49.204;8.140;2023-04-01T01:09:37;10.30;83.80
73576;DHT22;61859;49.204;8.140;2023-04-01T01:12:11;10.30;83.70
73576;DHT22;61859;49.204;8.140;2023-04-01T01:15:01;10.40;84.70
73576;DHT22;61859;49.204;8.140;2023-04-01T01:20:47;10.20;85.40
73576;DHT22;61859;49.204;8.140;2023-04-01T01:29:26;10.30;85.40
73576;DHT22;61859;49.204;8.140;2023-04-01T01:37:38;10.30;84.90
73576;DHT22;61859;49.204;8.140;2023-04-01T01:40:07;10.40;84.80
73576;DHT22;61859;49.204;8.140;2023-04-01T01:42:37;10.30;84.90
73576;DHT22;61859;49.204;8.140;2023-04-01T01:45:05;10.30;84.80
73576;DHT22;61859;49.204;8.140;2023-04-01T01:47:32;10.30;84.90
73576;DHT22;61859;49.204;8.140;2023-04-01T01:49:59;10.30;84.90
73576;DHT22;61859;49.204;8.140;2023-04-01T01:52:27;10.40;84.90
73576;DHT22;61859;49.204;8.140;2023-04-01T01:54:56;10.30;84.80
73576;DHT22;61859;49.204;8.140;2023-04-01T01:57:34;10.30;84.80
73576;DHT22;61859;49.204;8.140;2023-04-01T02:00:09;10.30;84.60
73576;DHT22;61859;49.204;8.140;2023-04-01T02:02:44;10.30;85.00
73576;DHT22;61859;49.204;8.140;2023-04-01T02:05:14;10.30;85.30
73576;DHT22;61859;49.204;8.140;2023-04-01T02:07:43;10.20;85.20
73576;DHT22;61859;49.204;8.140;2023-04-01T02:10:12;10.20;86.20
73576;DHT22;61859;49.204;8.140;2023-04-01T02:12:38;10.20;86.70
73576;DHT22;61859;49.204;8.140;2023-04-01T02:15:09;10.10;86.90
73576;DHT22;61859;49.204;8.140;2023-04-01T02:17:39;10.10;87.10
73576;DHT22;61859;49.204;8.140;2023-04-01T02:20:10;10.00;87.80
73576;DHT22;61859;49.204;8.140;2023-04-01T02:22:39;9.90;88.20
73576;DHT22;61859;49.204;8.140;2023-04-01T02:25:13;9.80;88.60
73576;DHT22;61859;49.204;8.140;2023-04-01T02:27:40;9.80;88.50
73576;DHT22;61859;49.204;8.140;2023-04-01T02:30:08;9.80;89.50
73576;DHT22;61859;49.204;8.140;2023-04-01T02:32:35;9.80;89.00
73576;DHT22;61859;49.204;8.140;2023-04-01T02:35:05;9.70;88.80
73576;DHT22;61859;49.204;8.140;2023-04-01T02:37:31;9.80;88.70
73576;DHT22;61859;49.204;8.140;2023-04-01T02:40:05;9.80;88.20
73576;DHT22;61859;49.204;8.140;2023-04-01T02:42:32;9.90;88.20
73576;DHT22;61859;49.204;8.140;2023-04-01T02:44:57;9.90;88.40
73576;DHT22;61859;49.204;8.140;2023-04-01T02:47:23;9.90;88.20
73576;DHT22;61859;49.204;8.140;2023-04-01T02:49:48;9.90;87.70
73576;DHT22;61859;49.204;8.140;2023-04-01T02:52:14;9.90;87.90
73576;DHT22;61859;49.204;8.140;2023-04-01T02:54:39;10.00;87.50
73576;DHT22;61859;49.204;8.140;2023-04-01T02:57:05;10.00;86.80
73576;DHT22;61859;49.204;8.140;2023-04-01T02:59:31;10.10;85.80
73576;DHT22;61859;49.204;8.140;2023-04-01T03:01:57;10.10;85.70
73576;DHT22;61859;49.204;8.140;2023-04-01T03:04:22;10.20;85.70
73576;DHT22;61859;49.204;8.140;2023-04-01T03:06:48;10.20;85.00
73576;DHT22;61859;49.204;8.140;2023-04-01T03:09:14;10.20;84.60
73576;DHT22;61859;49.204;8.140;2023-04-01T03:11:39;10.30;84.70
73576;DHT22;61859;49.204;8.140;2023-04-01T03:14:06;10.30;84.90
73576;DHT22;61859;49.204;8.140;2023-04-01T03:16:32;10.20;85.50
73576;DHT22;61859;49.204;8.140;2023-04-01T03:18:58;10.20;85.50
73576;DHT22;61859;49.204;8.140;2023-04-01T03:21:25;10.10;84.60
73576;DHT22;61859;49.204;8.140;2023-04-01T03:23:51;10.10;84.70
73576;DHT22;61859;49.204;8.140;2023-04-01T03:26:17;10.30;84.50
73576;DHT22;61859;49.204;8.140;2023-04-01T03:28:42;10.30;83.60
73576;DHT22;61859;49.204;8.140;2023-04-01T03:31:08;10.40;84.70
73576;DHT22;61859;49.204;8.140;2023-04-01T03:33:34;10.20;85.30
73576;DHT22;61859;49.204;8.140;2023-04-01T03:35:59;10.10;85.60
73576;DHT22;61859;49.204;8.140;2023-04-01T03:38:25;10.00;84.90
73576;DHT22;61859;49.204;8.140;2023-04-01T03:40:50;10.10;85.40
73576;DHT22;61859;49.204;8.140;2023-04-01T03:43:16;10.10;85.60
73576;DHT22;61859;49.204;8.140;2023-04-01T03:45:49;10.10;86.00
73576;DHT22;61859;49.204;8.140;2023-04-01T03:48:15;10.00;86.30
73576;DHT22;61859;49.204;8.140;2023-04-01T03:50:41;10.00;87.20
73576;DHT22;61859;49.204;8.140;2023-04-01T03:53:07;9.90;86.80
73576;DHT22;61859;49.204;8.140;2023-04-01T03:55:33;10.00;87.70
73576;DHT22;61859;49.204;8.140;2023-04-01T03:58:00;9.90;88.40
73576;DHT22;61859;49.204;8.140;2023-04-01T04:00:28;9.80;89.10
73576;DHT22;61859;49.204;8.140;2023-04-01T04:02:53;9.80;89.70
73576;DHT22;61859;49.204;8.140;2023-04-01T04:05:21;9.70;90.00
73576;DHT22;61859;49.204;8.140;2023-04-01T04:07:46;9.60;90.40
73576;DHT22;61859;49.204;8.140;2023-04-01T04:10:12;9.50;90.80
73576;DHT22;61859;49.204;8.140;2023-04-01T04:12:37;9.50;91.40
73576;DHT22;61859;49.204;8.140;2023-04-01T04:15:03;9.40;91.90
73576;DHT22;61859;49.204;8.140;2023-04-01T04:17:28;9.30;92.50
73576;DHT22;61859;49.204;8.140;2023-04-01T04:19:54;9.30;92.70
73576;DHT22;61859;49.204;8.140;2023-04-01T04:22:20;9.30;93.10
73576;DHT22;61859;49.204;8.140;2023-04-01T04:24:45;9.30;93.00
73576;DHT22;61859;49.204;8.140;2023-04-01T04:27:11;9.30;93.00
73576;DHT22;61859;49.204;8.140;2023-04-01T04:29:36;9.30;92.70
73576;DHT22;61859;49.204;8.140;2023-04-01T04:32:02;9.30;92.20
73576;DHT22;61859;49.204;8.140;2023-04-01T04:34:27;9.40;91.60
73576;DHT22;61859;49.204;8.140;2023-04-01T04:36:53;9.50;91.20
73576;DHT22;61859;49.204;8.140;2023-04-01T04:39:18;9.60;91.20
73576;DHT22;61859;49.204;8.140;2023-04-01T04:41:44;9.60;90.70
73576;DHT22;61859;49.204;8.140;2023-04-01T04:44:10;9.60;90.60
73576;DHT22;61859;49.204;8.140;2023-04-01T04:46:35;9.60;90.00
73576;DHT22;61859;49.204;8.140;2023-04-01T04:49:02;9.70;89.60
73576;DHT22;61859;49.204;8.140;2023-04-01T04:51:27;9.70;89.90
73576;DHT22;61859;49.204;8.140;2023-04-01T04:53:53;9.80;90.10
73576;DHT22;61859;49.204;8.140;2023-04-01T04:56:20;9.60;90.60
73576;DHT22;61859;49.204;8.140;2023-04-01T04:58:46;9.60;90.70
73576;DHT22;61859;49.204;8.140;2023-04-01T05:01:14;9.50;91.20
73576;DHT22;61859;49.204;8.140;2023-04-01T05:03:40;9.50;91.50
73576;DHT22;61859;49.204;8.140;2023-04-01T05:06:06;9.50;91.80
73576;DHT22;61859;49.204;8.140;2023-04-01T05:08:32;9.50;92.20
73576;DHT22;61859;49.204;8.140;2023-04-01T05:10:59;9.50;92.10
73576;DHT22;61859;49.204;8.140;2023-04-01T05:13:25;9.50;92.30
73576;DHT22;61859;49.204;8.140;2023-04-01T05:15:51;9.40;92.60
73576;DHT22;61859;49.204;8.140;2023-04-01T05:18:17;9.40;93.10
73576;DHT22;61859;49.204;8.140;2023-04-01T05:20:53;9.40;93.30
73576;DHT22;61859;49.204;8.140;2023-04-01T05:23:19;9.40;93.10
73576;DHT22;61859;49.204;8.140;2023-04-01T05:25:47;9.40;92.90
73576;DHT22;61859;49.204;8.140;2023-04-01T05:28:13;9.30;92.90
73576;DHT22;61859;49.204;8.140;2023-04-01T05:30:42;9.30;92.90
73576;DHT22;61859;49.204;8.140;2023-04-01T05:33:09;9.40;92.70
73576;DHT22;61859;49.204;8.140;2023-04-01T05:35:35;9.40;92.70
73576;DHT22;61859;49.204;8.140;2023-04-01T05:38:01;9.50;92.60
73576;DHT22;61859;49.204;8.140;2023-04-01T05:40:28;9.40;92.90
73576;DHT22;61859;49.204;8.140;2023-04-01T05:42:53;9.30;92.70
73576;DHT22;61859;49.204;8.140;2023-04-01T05:45:19;9.40;93.30
73576;DHT22;61859;49.204;8.140;2023-04-01T05:47:44;9.40;93.30
73576;DHT22;61859;49.204;8.140;2023-04-01T05:50:10;9.40;93.70
73576;DHT22;61859;49.204;8.140;2023-04-01T05:52:37;9.40;93.00
73576;DHT22;61859;49.204;8.140;2023-04-01T05:55:04;9.40;93.70
73576;DHT22;61859;49.204;8.140;2023-04-01T05:57:30;9.30;93.30
73576;DHT22;61859;49.204;8.140;2023-04-01T05:59:55;9.20;93.70
73576;DHT22;61859;49.204;8.140;2023-04-01T06:02:21;9.20;93.00
73576;DHT22;61859;49.204;8.140;2023-04-01T06:04:47;9.30;93.20
73576;DHT22;61859;49.204;8.140;2023-04-01T06:07:17;9.30;93.00
73576;DHT22;61859;49.204;8.140;2023-04-01T06:09:44;9.30;93.50
73576;DHT22;61859;49.204;8.140;2023-04-01T06:14:48;9.40;94.20
73576;DHT22;61859;49.204;8.140;2023-04-01T06:17:52;9.30;94.40
73576;DHT22;61859;49.204;8.140;2023-04-01T06:25:54;9.10;94.80
73576;DHT22;61859;49.204;8.140;2023-04-01T06:28:41;9.10;94.80
73576;DHT22;61859;49.204;8.140;2023-04-01T06:36:57;9.00;96.00
73576;DHT22;61859;49.204;8.140;2023-04-01T06:40:36;9.00;96.70
73576;DHT22;61859;49.204;8.140;2023-04-01T06:50:07;9.20;95.70
73576;DHT22;61859;49.204;8.140;2023-04-01T06:53:00;9.10;95.80
73576;DHT22;61859;49.204;8.140;2023-04-01T06:58:25;9.20;95.00
73576;DHT22;61859;49.204;8.140;2023-04-01T07:00:56;9.40;95.40
73576;DHT22;61859;49.204;8.140;2023-04-01T07:03:52;9.30;95.10
73576;DHT22;61859;49.204;8.140;2023-04-01T07:08:54;9.30;96.70
73576;DHT22;61859;49.204;8.140;2023-04-01T07:11:31;9.30;96.70
73576;DHT22;61859;49.204;8.140;2023-04-01T07:14:21;9.20;96.90
73576;DHT22;61859;49.204;8.140;2023-04-01T07:19:33;9.10;97.60
73576;DHT22;61859;49.204;8.140;2023-04-01T07:22:04;9.00;98.10
73576;DHT22;61859;49.204;8.140;2023-04-01T07:24:36;9.00;98.90
73576;DHT22;61859;49.204;8.140;2023-04-01T07:27:03;8.90;99.00
73576;DHT22;61859;49.204;8.140;2023-04-01T07:29:28;9.00;99.30
73576;DHT22;61859;49.204;8.140;2023-04-01T07:35:13;9.00;99.50
73576;DHT22;61859;49.204;8.140;2023-04-01T07:38:08;9.00;99.90
73576;DHT22;61859;49.204;8.140;2023-04-01T07:43:53;9.00;99.80
73576;DHT22;61859;49.204;8.140;2023-04-01T07:49:29;9.10;99.90
73576;DHT22;61859;49.204;8.140;2023-04-01T07:52:18;9.00;99.90
73576;DHT22;61859;49.204;8.140;2023-04-01T07:55:03;9.00;99.90
73576;DHT22;61859;49.204;8.140;2023-04-01T08:11:29;9.30;99.90
73576;DHT22;61859;49.204;8.140;2023-04-01T08:14:27;9.30;99.90
73576;DHT22;61859;49.204;8.140;2023-04-01T08:17:16;9.30;99.90
73576;DHT22;61859;49.204;8.140;2023-04-01T08:22:42;9.30;99.90
73576;DHT22;61859;49.204;8.140;2023-04-01T08:25:16;9.40;99.90
73576;DHT22;61859;49.204;8.140;2023-04-01T08:27:55;9.50;99.90
73576;DHT22;61859;49.204;8.140;2023-04-01T08:31:04;9.60;99.90
73576;DHT22;61859;49.204;8.140;2023-04-01T08:33:32;9.50;99.90
73576;DHT22;61859;49.204;8.140;2023-04-01T08:38:57;9.60;99.90
73576;DHT22;61859;49.204;8.140;2023-04-01T08:41:41;9.70;99.90
73576;DHT22;61859;49.204;8.140;2023-04-01T08:47:24;9.70;99.90
73576;DHT22;61859;49.204;8.140;2023-04-01T08:56:09;10.00;99.90
73576;DHT22;61859;49.204;8.140;2023-04-01T09:01:50;9.90;99.90
73576;DHT22;61859;49.204;8.140;2023-04-01T09:04:39;10.00;99.90
73576;DHT22;61859;49.204;8.140;2023-04-01T09:10:05;10.00;99.90
73576;DHT22;61859;49.204;8.140;2023-04-01T09:15:30;10.00;99.60
73576;DHT22;61859;49.204;8.140;2023-04-01T09:18:04;10.00;99.90
73576;DHT22;61859;49.204;8.140;2023-04-01T09:20:40;10.00;99.90
73576;DHT22;61859;49.204;8.140;2023-04-01T09:34:25;10.20;99.90
73576;DHT22;61859;49.204;8.140;2023-04-01T09:40:37;10.40;99.70
73576;DHT22;61859;49.204;8.140;2023-04-01T09:48:41;10.60;99.90
73576;DHT22;61859;49.204;8.140;2023-04-01T09:57:11;10.50;99.10
73576;DHT22;61859;49.204;8.140;2023-04-01T10:13:40;10.70;97.30
73576;DHT22;61859;49.204;8.140;2023-04-01T10:21:57;11.00;96.70
73576;DHT22;61859;49.204;8.140;2023-04-01T10:24:53;11.20;97.30
73576;DHT22;61859;49.204;8.140;2023-04-01T10:27:33;11.10;95.20
73576;DHT22;61859;49.204;8.140;2023-04-01T10:30:44;10.90;97.30
73576;DHT22;61859;49.204;8.140;2023-04-01T10:36:54;10.80;97.90
73576;DHT22;61859;49.204;8.140;2023-04-01T10:45:15;10.80;96.80
73576;DHT22;61859;49.204;8.140;2023-04-01T10:48:01;10.90;95.30
73576;DHT22;61859;49.204;8.140;2023-04-01T10:59:53;11.10;96.60
73576;DHT22;61859;49.204;8.140;2023-04-01T11:02:56;11.00;95.50
73576;DHT22;61859;49.204;8.140;2023-04-01T11:11:34;11.00;96.20
73576;DHT22;61859;49.204;8.140;2023-04-01T11:17:18;11.00;96.60
73576;DHT22;61859;49.204;8.140;2023-04-01T11:23:07;11.00;96.20
73576;DHT22;61859;49.204;8.140;2023-04-01T11:26:12;10.80;96.40
73576;DHT22;61859;49.204;8.140;2023-04-01T11:31:50;10.70;97.40
73576;DHT22;61859;49.204;8.140;2023-04-01T11:45:49;11.30;94.80
73576;DHT22;61859;49.204;8.140;2023-04-01T11:51:28;11.40;95.50
73576;DHT22;61859;49.204;8.140;2023-04-01T11:57:03;11.30;95.40
73576;DHT22;61859;49.204;8.140;2023-04-01T12:03:00;11.30;96.50
73576;DHT22;61859;49.204;8.140;2023-04-01T12:05:47;11.70;97.20
73576;DHT22;61859;49.204;8.140;2023-04-01T12:11:33;11.90;94.20
73576;DHT22;61859;49.204;8.140;2023-04-01T12:14:11;12.10;91.60
73576;DHT22;61859;49.204;8.140;2023-04-01T12:16:53;12.50;92.20
73576;DHT22;61859;49.204;8.140;2023-04-01T12:24:51;12.60;90.60
73576;DHT22;61859;49.204;8.140;2023-04-01T12:27:45;12.50;91.10
73576;DHT22;61859;49.204;8.140;2023-04-01T12:30:48;12.40;91.70
73576;DHT22;61859;49.204;8.140;2023-04-01T12:41:24;11.50;92.10
73576;DHT22;61859;49.204;8.140;2023-04-01T12:43:56;11.40;93.20
73576;DHT22;61859;49.204;8.140;2023-04-01T12:46:49;11.20;91.70
73576;DHT22;61859;49.204;8.140;2023-04-01T12:49:46;11.10;93.00
73576;DHT22;61859;49.204;8.140;2023-04-01T12:52:30;11.00;94.20
73576;DHT22;61859;49.204;8.140;2023-04-01T12:55:23;11.10;93.10
73576;DHT22;61859;49.204;8.140;2023-04-01T12:58:05;11.20;93.40
73576;DHT22;61859;49.204;8.140;2023-04-01T13:00:58;11.60;92.00
73576;DHT22;61859;49.204;8.140;2023-04-01T13:10:15;11.80;90.70
73576;DHT22;61859;49.204;8.140;2023-04-01T13:18:17;11.30;92.00
73576;DHT22;61859;49.204;8.140;2023-04-01T13:21:25;11.20;92.10
73576;DHT22;61859;49.204;8.140;2023-04-01T13:29:28;11.20;91.00
73576;DHT22;61859;49.204;8.140;2023-04-01T13:32:05;11.30;91.80
73576;DHT22;61859;49.204;8.140;2023-04-01T13:37:18;11.50;89.80
73576;DHT22;61859;49.204;8.140;2023-04-01T13:40:33;11.60;89.70
73576;DHT22;61859;49.204;8.140;2023-04-01T13:43:23;11.80;88.40
73576;DHT22;61859;49.204;8.140;2023-04-01T13:46:12;11.80;87.90
73576;DHT22;61859;49.204;8.140;2023-04-01T14:02:47;11.60;89.60
73576;DHT22;61859;49.204;8.140;2023-04-01T14:08:42;11.90;88.40
73576;DHT22;61859;49.204;8.140;2023-04-01T14:11:26;12.00;89.20
73576;DHT22;61859;49.204;8.140;2023-04-01T14:16:57;12.20;89.00
73576;DHT22;61859;49.204;8.140;2023-04-01T14:25:20;11.90;89.40
73576;DHT22;61859;49.204;8.140;2023-04-01T14:41:21;11.50;92.20
73576;DHT22;61859;49.204;8.140;2023-04-01T14:49:37;12.40;90.30
73576;DHT22;61859;49.204;8.140;2023-04-01T14:54:44;12.70;86.80
73576;DHT22;61859;49.204;8.140;2023-04-01T14:57:23;12.70;86.90
73576;DHT22;61859;49.204;8.140;2023-04-01T15:02:46;12.40;89.10
73576;DHT22;61859;49.204;8.140;2023-04-01T15:05:43;12.30;90.20
73576;DHT22;61859;49.204;8.140;2023-04-01T15:11:14;12.00;90.80
73576;DHT22;61859;49.204;8.140;2023-04-01T15:16:30;11.70;91.60
73576;DHT22;61859;49.204;8.140;2023-04-01T15:22:37;11.40;91.60
73576;DHT22;61859;49.204;8.140;2023-04-01T15:28:46;11.10;91.20
73576;DHT22;61859;49.204;8.140;2023-04-01T15:31:01;11.30;90.20
73576;DHT22;61859;49.204;8.140;2023-04-01T15:36:28;11.60;89.00
73576;DHT22;61859;49.204;8.140;2023-04-01T15:50:26;11.80;88.30
73576;DHT22;61859;49.204;8.140;2023-04-01T15:58:35;11.20;91.30
73576;DHT22;61859;49.204;8.140;2023-04-01T16:09:54;10.50;94.00
73576;DHT22;61859;49.204;8.140;2023-04-01T16:15:33;10.60;95.20
73576;DHT22;61859;49.204;8.140;2023-04-01T16:21:28;10.70;91.50
73576;DHT22;61859;49.204;8.140;2023-04-01T16:26:54;10.80;90.00
73576;DHT22;61859;49.204;8.140;2023-04-01T16:32:41;11.10;88.50
73576;DHT22;61859;49.204;8.140;2023-04-01T16:37:56;11.30;86.20
73576;DHT22;61859;49.204;8.140;2023-04-01T16:40:37;11.30;87.00
73576;DHT22;61859;49.204;8.140;2023-04-01T16:48:59;11.30;86.90
73576;DHT22;61859;49.204;8.140;2023-04-01T16:54:52;11.20;86.70
73576;DHT22;61859;49.204;8.140;2023-04-01T16:57:26;11.20;86.50
73576;DHT22;61859;49.204;8.140;2023-04-01T17:00:15;11.10;86.30
73576;DHT22;61859;49.204;8.140;2023-04-01T17:03:26;11.10;86.50
73576;DHT22;61859;49.204;8.140;2023-04-01T17:11:18;11.20;86.10
73576;DHT22;61859;49.204;8.140;2023-04-01T17:19:26;11.10;86.70
73576;DHT22;61859;49.204;8.140;2023-04-01T17:22:27;11.00;86.60
73576;DHT22;61859;49.204;8.140;2023-04-01T17:25:20;11.00;86.90
73576;DHT22;61859;49.204;8.140;2023-04-01T17:28:09;11.00;86.20
73576;DHT22;61859;49.204;8.140;2023-04-01T17:30:58;10.90;86.00
73576;DHT22;61859;49.204;8.140;2023-04-01T17:36:36;10.80;85.60
73576;DHT22;61859;49.204;8.140;2023-04-01T17:40:08;10.70;85.90
73576;DHT22;61859;49.204;8.140;2023-04-01T17:42:15;10.80;86.50
73576;DHT22;61859;49.204;8.140;2023-04-01T17:45:10;10.60;86.40
73576;DHT22;61859;49.204;8.140;2023-04-01T17:56:14;10.30;87.60
73576;DHT22;61859;49.204;8.140;2023-04-01T17:58:51;10.20;88.00
73576;DHT22;61859;49.204;8.140;2023-04-01T18:12:20;10.00;89.30
73576;DHT22;61859;49.204;8.140;2023-04-01T18:17:55;10.00;89.80
73576;DHT22;61859;49.204;8.140;2023-04-01T18:20:44;9.90;90.00
73576;DHT22;61859;49.204;8.140;2023-04-01T18:23:27;9.90;89.80
73576;DHT22;61859;49.204;8.140;2023-04-01T18:26:04;9.90;89.20
73576;DHT22;61859;49.204;8.140;2023-04-01T18:36:44;10.00;89.10
73576;DHT22;61859;49.204;8.140;2023-04-01T18:39:20;10.10;88.90
73576;DHT22;61859;49.204;8.140;2023-04-01T18:42:29;10.10;88.80
73576;DHT22;61859;49.204;8.140;2023-04-01T18:45:09;10.00;88.60
73576;DHT22;61859;49.204;8.140;2023-04-01T18:50:43;10.10;88.70
73576;DHT22;61859;49.204;8.140;2023-04-01T18:56:09;10.10;88.50
73576;DHT22;61859;49.204;8.140;2023-04-01T18:58:52;10.10;88.70
73576;DHT22;61859;49.204;8.140;2023-04-01T19:04:17;10.20;88.60
73576;DHT22;61859;49.204;8.140;2023-04-01T19:06:50;10.10;88.60
73576;DHT22;61859;49.204;8.140;2023-04-01T19:09:52;10.10;89.00
73576;DHT22;61859;49.204;8.140;2023-04-01T19:12:34;10.10;88.60
73576;DHT22;61859;49.204;8.140;2023-04-01T19:15:30;10.10;88.60
73576;DHT22;61859;49.204;8.140;2023-04-01T19:21:16;10.10;88.40
73576;DHT22;61859;49.204;8.140;2023-04-01T19:26:30;10.00;88.80
73576;DHT22;61859;49.204;8.140;2023-04-01T19:29:13;10.10;88.60
73576;DHT22;61859;49.204;8.140;2023-04-01T19:32:08;10.10;88.70
73576;DHT22;61859;49.204;8.140;2023-04-01T19:38:09;10.10;88.80
73576;DHT22;61859;49.204;8.140;2023-04-01T19:45:54;10.20;88.40
73576;DHT22;61859;49.204;8.140;2023-04-01T19:48:43;10.20;88.50
73576;DHT22;61859;49.204;8.140;2023-04-01T19:51:22;10.20;88.40
73576;DHT22;61859;49.204;8.140;2023-04-01T19:54:22;10.20;88.60
73576;DHT22;61859;49.204;8.140;2023-04-01T19:56:55;10.20;88.70
73576;DHT22;61859;49.204;8.140;2023-04-01T19:59:45;10.20;88.80
73576;DHT22;61859;49.204;8.140;2023-04-01T20:04:54;10.20;89.40
73576;DHT22;61859;49.204;8.140;2023-04-01T20:07:37;10.10;89.20
73576;DHT22;61859;49.204;8.140;2023-04-01T20:10:10;10.10;89.60
73576;DHT22;61859;49.204;8.140;2023-04-01T20:13:02;10.20;89.90
73576;DHT22;61859;49.204;8.140;2023-04-01T20:15:47;10.10;90.00
73576;DHT22;61859;49.204;8.140;2023-04-01T20:18:37;10.10;89.80
73576;DHT22;61859;49.204;8.140;2023-04-01T20:21:28;10.10;90.00
73576;DHT22;61859;49.204;8.140;2023-04-01T20:24:02;10.10;89.80
73576;DHT22;61859;49.204;8.140;2023-04-01T20:26:35;10.10;89.70
73576;DHT22;61859;49.204;8.140;2023-04-01T20:32:33;10.10;89.90
73576;DHT22;61859;49.204;8.140;2023-04-01T20:38:35;10.10;90.10
73576;DHT22;61859;49.204;8.140;2023-04-01T20:41:37;10.00;90.00
73576;DHT22;61859;49.204;8.140;2023-04-01T20:44:12;10.00;89.80
73576;DHT22;61859;49.204;8.140;2023-04-01T20:49:33;10.00;90.10
73576;DHT22;61859;49.204;8.140;2023-04-01T20:54:45;10.00;90.00
73576;DHT22;61859;49.204;8.140;2023-04-01T20:57:24;10.00;90.00
73576;DHT22;61859;49.204;8.140;2023-04-01T21:06:18;10.00;90.20
73576;DHT22;61859;49.204;8.140;2023-04-01T21:09:13;9.90;90.20
73576;DHT22;61859;49.204;8.140;2023-04-01T21:12:14;9.90;90.50
73576;DHT22;61859;49.204;8.140;2023-04-01T21:20:33;10.00;90.30
73576;DHT22;61859;49.204;8.140;2023-04-01T21:23:47;10.00;90.00
73576;DHT22;61859;49.204;8.140;2023-04-01T21:32:26;10.00;90.50
73576;DHT22;61859;49.204;8.140;2023-04-01T21:38:06;10.00;90.60
73576;DHT22;61859;49.204;8.140;2023-04-01T21:46:22;10.00;91.00
73576;DHT22;61859;49.204;8.140;2023-04-01T21:49:26;10.00;90.50
73576;DHT22;61859;49.204;8.140;2023-04-01T22:01:07;10.00;91.20
73576;DHT22;61859;49.204;8.140;2023-04-01T22:06:54;10.00;91.40
73576;DHT22;61859;49.204;8.140;2023-04-01T22:09:28;9.80;91.60
73576;DHT22;61859;49.204;8.140;2023-04-01T22:23:01;9.80;91.90
73576;DHT22;61859;49.204;8.140;2023-04-01T22:25:40;9.70;92.30
73576;DHT22;61859;49.204;8.140;2023-04-01T22:28:11;9.70;92.50
73576;DHT22;61859;49.204;8.140;2023-04-01T22:30:54;9.70;92.60
73576;DHT22;61859;49.204;8.140;2023-04-01T22:36:28;9.70;92.90
73576;DHT22;61859;49.204;8.140;2023-04-01T22:42:05;9.70;92.80
73576;DHT22;61859;49.204;8.140;2023-04-01T22:50:40;9.80;92.50
73576;DHT22;61859;49.204;8.140;2023-04-01T22:53:25;9.80;92.60
73576;DHT22;61859;49.204;8.140;2023-04-01T22:55:53;9.70;92.40
73576;DHT22;61859;49.204;8.140;2023-04-01T22:58:34;9.80;92.40
73576;DHT22;61859;49.204;8.140;2023-04-01T23:01:06;9.70;92.50
73576;DHT22;61859;49.204;8.140;2023-04-01T23:03:39;9.70;92.70
73576;DHT22;61859;49.204;8.140;2023-04-01T23:06:05;9.70;92.80
73576;DHT22;61859;49.204;8.140;2023-04-01T23:09:01;9.80;93.10
73576;DHT22;61859;49.204;8.140;2023-04-01T23:11:39;9.80;92.90
73576;DHT22;61859;49.204;8.140;2023-04-01T23:19:49;9.70;93.10
73576;DHT22;61859;49.204;8.140;2023-04-01T23:22:34;9.70;93.20
73576;DHT22;61859;49.204;8.140;2023-04-01T23:38:24;9.60;94.50
73576;DHT22;61859;49.204;8.140;2023-04-01T23:40:52;9.60;94.70
73576;DHT22;61859;49.204;8.140;2023-04-01T23:43:35;9.50;94.80
73576;DHT22;61859;49.204;8.140;2023-04-01T23:46:03;9.40;95.00
73576;DHT22;61859;49.204;8.140;2023-04-01T23:48:47;9.40;95.00
73576;DHT22;61859;49.204;8.140;2023-04-01T23:51:23;9.40;95.10
73576;DHT22;61859;49.204;8.140;2023-04-01T23:54:01;9.30;95.50
73576;DHT22;61859;49.204;8.140;2023-04-01T23:56:53;9.30;95.70
73576;DHT22;61859;49.204;8.140;2023-04-01T23:59:32;9.20;95.80
